This is the latest recevied weather packets stored in our database for station/object WC4PEM. If no packets are shown the sender has not sent any weather packets the latest 1 day(s).
| Time | Temp. | Humidity | Pressure | Rain* | Wind** | Luminosity | Snow |
|---|---|---|---|---|---|---|---|
| 1778030508 | 24.44° C | 65% | 1014.8 hPa | 0 mm | 4.02 m/s, 87° | - | - |
| 1778030366 | 24.44° C | 65% | 1014.8 hPa | 0 mm | 4.02 m/s, 87° | - | - |
| 1778030066 | 24.44° C | 65% | 1014.7 hPa | 0 mm | 4.02 m/s, 100° | - | - |
| 1778029766 | 25° C | 64% | 1014.7 hPa | 0 mm | 4.02 m/s, 109° | - | - |
| 1778029738 | 25° C | 64% | 1014.6 hPa | 0 mm | 4.02 m/s, 109° | - | - |
| 1778029561 | 25° C | 64% | 1014.6 hPa | 0 mm | 4.02 m/s, 109° | - | - |
| 1778029466 | 25° C | 64% | 1014.6 hPa | 0 mm | 4.02 m/s, 109° | - | - |
| 1778029291 | 25° C | 64% | 1014.5 hPa | 0 mm | 4.02 m/s, 102° | - | - |
| 1778029166 | 25° C | 64% | 1014.5 hPa | 0 mm | 4.02 m/s, 102° | - | - |
| 1778028901 | 25° C | 63% | 1014.4 hPa | 0 mm | 4.02 m/s, 103° | - | - |
| 1778028866 | 25° C | 63% | 1014.4 hPa | 0 mm | 4.02 m/s, 103° | - | - |
| 1778028755 | 25.56° C | 62% | 1014 hPa | 0 mm | 5.81 m/s, 88° | - | - |
| 1778028566 | 25° C | 63% | 1014.3 hPa | 0 mm | 4.02 m/s, 86° | - | - |
| 1778028266 | 25° C | 63% | 1014.3 hPa | 0 mm | 4.02 m/s, 110° | - | - |
| 1778027966 | 25.56° C | 62% | 1014.3 hPa | 0 mm | 4.47 m/s, 67° | - | - |
| 1778027666 | 25.56° C | 62% | 1014.2 hPa | 0 mm | 4.92 m/s, 96° | - | - |
| 1778027495 | 25.56° C | 62% | 1014.1 hPa | 0 mm | 4.92 m/s, 102° | - | - |
| 1778027366 | 25.56° C | 62% | 1014.1 hPa | 0 mm | 4.92 m/s, 102° | - | - |
| 1778027066 | 25.56° C | 62% | 1014 hPa | 0 mm | 5.81 m/s, 88° | - | - |
| 1778026766 | 25.56° C | 61% | 1014 hPa | 0 mm | 6.26 m/s, 104° | - | - |
| 1778026700 | 26.11° C | 62% | 1014 hPa | 0 mm | 6.26 m/s, 110° | - | - |
| 1778026509 | 26.11° C | 62% | 1014 hPa | 0 mm | 6.26 m/s, 110° | - | - |
| 1778026466 | 26.11° C | 62% | 1014 hPa | 0 mm | 5.81 m/s, 117° | - | - |
| 1778026204 | 26.11° C | 61% | 1013.8 hPa | 0 mm | 6.26 m/s, 104° | - | - |
| 1778026166 | 26.11° C | 62% | 1014 hPa | 0 mm | 6.26 m/s, 110° | - | - |
* Rain latest hour (hover to see other rain measurements)
** Current wind speed in m/s (hover to see current wind gust speed)